sensor_id;sensor_type;location;lat;lon;timestamp;P1;durP1;ratioP1;P2;durP2;ratioP2
71166;SDS011;58864;45.928;20.078;2022-09-09T00:04:36;7.97;;;3.30;;
71166;SDS011;58864;45.928;20.078;2022-09-09T00:07:03;7.35;;;3.15;;
71166;SDS011;58864;45.928;20.078;2022-09-09T00:15:28;8.02;;;4.07;;
71166;SDS011;58864;45.928;20.078;2022-09-09T00:21:13;8.02;;;3.35;;
71166;SDS011;58864;45.928;20.078;2022-09-09T00:23:50;10.00;;;3.63;;
71166;SDS011;58864;45.928;20.078;2022-09-09T00:29:28;7.63;;;3.45;;
71166;SDS011;58864;45.928;20.078;2022-09-09T00:32:16;7.50;;;4.00;;
71166;SDS011;58864;45.928;20.078;2022-09-09T00:34:49;7.35;;;3.50;;
71166;SDS011;58864;45.928;20.078;2022-09-09T00:37:18;9.85;;;3.63;;
71166;SDS011;58864;45.928;20.078;2022-09-09T00:39:47;7.50;;;3.53;;
71166;SDS011;58864;45.928;20.078;2022-09-09T00:42:13;8.10;;;3.90;;
71166;SDS011;58864;45.928;20.078;2022-09-09T00:58:12;8.52;;;3.88;;
71166;SDS011;58864;45.928;20.078;2022-09-09T01:01:12;10.52;;;4.45;;
71166;SDS011;58864;45.928;20.078;2022-09-09T01:09:05;8.15;;;4.10;;
71166;SDS011;58864;45.928;20.078;2022-09-09T01:11:47;11.75;;;4.38;;
71166;SDS011;58864;45.928;20.078;2022-09-09T01:17:21;7.28;;;3.80;;
71166;SDS011;58864;45.928;20.078;2022-09-09T01:19:55;9.07;;;4.00;;
71166;SDS011;58864;45.928;20.078;2022-09-09T01:22:44;8.63;;;3.55;;
71166;SDS011;58864;45.928;20.078;2022-09-09T01:28:18;10.25;;;3.92;;
71166;SDS011;58864;45.928;20.078;2022-09-09T01:30:47;9.38;;;4.05;;
71166;SDS011;58864;45.928;20.078;2022-09-09T01:33:15;9.67;;;4.17;;
71166;SDS011;58864;45.928;20.078;2022-09-09T01:35:56;10.45;;;4.18;;
71166;SDS011;58864;45.928;20.078;2022-09-09T01:38:28;12.05;;;4.30;;
71166;SDS011;58864;45.928;20.078;2022-09-09T01:40:56;10.07;;;4.32;;
71166;SDS011;58864;45.928;20.078;2022-09-09T01:43:27;9.35;;;4.47;;
71166;SDS011;58864;45.928;20.078;2022-09-09T01:45:53;10.50;;;4.93;;
71166;SDS011;58864;45.928;20.078;2022-09-09T01:48:20;11.05;;;4.53;;
71166;SDS011;58864;45.928;20.078;2022-09-09T01:50:46;11.23;;;5.70;;
71166;SDS011;58864;45.928;20.078;2022-09-09T01:53:13;10.10;;;5.03;;
71166;SDS011;58864;45.928;20.078;2022-09-09T01:55:42;9.70;;;4.72;;
71166;SDS011;58864;45.928;20.078;2022-09-09T02:00:56;11.73;;;5.00;;
71166;SDS011;58864;45.928;20.078;2022-09-09T02:03:44;9.50;;;5.00;;
71166;SDS011;58864;45.928;20.078;2022-09-09T02:09:06;10.02;;;5.07;;
71166;SDS011;58864;45.928;20.078;2022-09-09T02:11:34;10.15;;;4.60;;
71166;SDS011;58864;45.928;20.078;2022-09-09T02:14:01;11.57;;;5.28;;
71166;SDS011;58864;45.928;20.078;2022-09-09T02:16:36;11.83;;;5.17;;
71166;SDS011;58864;45.928;20.078;2022-09-09T02:19:14;8.32;;;4.28;;
71166;SDS011;58864;45.928;20.078;2022-09-09T02:21:53;11.98;;;5.03;;
71166;SDS011;58864;45.928;20.078;2022-09-09T02:24:19;10.38;;;4.90;;
71166;SDS011;58864;45.928;20.078;2022-09-09T02:26:44;11.77;;;5.07;;
71166;SDS011;58864;45.928;20.078;2022-09-09T02:29:14;11.37;;;5.13;;
71166;SDS011;58864;45.928;20.078;2022-09-09T02:31:44;11.02;;;5.00;;
71166;SDS011;58864;45.928;20.078;2022-09-09T02:34:14;10.32;;;4.88;;
71166;SDS011;58864;45.928;20.078;2022-09-09T02:36:43;10.55;;;4.90;;
71166;SDS011;58864;45.928;20.078;2022-09-09T02:39:12;11.25;;;5.35;;
71166;SDS011;58864;45.928;20.078;2022-09-09T02:41:40;19.07;;;5.50;;
71166;SDS011;58864;45.928;20.078;2022-09-09T02:44:12;9.48;;;4.72;;
71166;SDS011;58864;45.928;20.078;2022-09-09T02:49:44;10.77;;;4.75;;
71166;SDS011;58864;45.928;20.078;2022-09-09T02:52:27;12.75;;;4.78;;
71166;SDS011;58864;45.928;20.078;2022-09-09T02:54:59;11.33;;;5.00;;
71166;SDS011;58864;45.928;20.078;2022-09-09T02:57:47;8.57;;;4.65;;
71166;SDS011;58864;45.928;20.078;2022-09-09T03:00:23;11.35;;;4.95;;
71166;SDS011;58864;45.928;20.078;2022-09-09T03:02:52;10.90;;;4.70;;
71166;SDS011;58864;45.928;20.078;2022-09-09T03:05:20;11.18;;;4.43;;
71166;SDS011;58864;45.928;20.078;2022-09-09T03:07:48;12.33;;;4.70;;
71166;SDS011;58864;45.928;20.078;2022-09-09T03:10:16;9.25;;;4.68;;
71166;SDS011;58864;45.928;20.078;2022-09-09T03:12:43;12.20;;;5.35;;
71166;SDS011;58864;45.928;20.078;2022-09-09T03:15:09;11.80;;;4.60;;
71166;SDS011;58864;45.928;20.078;2022-09-09T03:17:36;11.20;;;5.03;;
71166;SDS011;58864;45.928;20.078;2022-09-09T03:20:06;11.20;;;5.07;;
71166;SDS011;58864;45.928;20.078;2022-09-09T03:22:32;12.05;;;4.90;;
71166;SDS011;58864;45.928;20.078;2022-09-09T03:24:57;9.07;;;4.45;;
71166;SDS011;58864;45.928;20.078;2022-09-09T03:27:25;8.60;;;4.25;;
71166;SDS011;58864;45.928;20.078;2022-09-09T03:29:54;8.70;;;4.30;;
71166;SDS011;58864;45.928;20.078;2022-09-09T03:32:22;10.75;;;4.38;;
71166;SDS011;58864;45.928;20.078;2022-09-09T03:34:53;9.95;;;4.53;;
71166;SDS011;58864;45.928;20.078;2022-09-09T03:37:20;10.15;;;5.28;;
71166;SDS011;58864;45.928;20.078;2022-09-09T03:39:44;8.70;;;4.53;;
71166;SDS011;58864;45.928;20.078;2022-09-09T03:42:12;10.03;;;4.43;;
71166;SDS011;58864;45.928;20.078;2022-09-09T03:44:41;10.43;;;4.57;;
71166;SDS011;58864;45.928;20.078;2022-09-09T03:47:06;8.90;;;4.40;;
71166;SDS011;58864;45.928;20.078;2022-09-09T03:49:33;13.77;;;4.88;;
71166;SDS011;58864;45.928;20.078;2022-09-09T03:52:01;8.95;;;4.80;;
71166;SDS011;58864;45.928;20.078;2022-09-09T03:54:26;10.20;;;4.70;;
71166;SDS011;58864;45.928;20.078;2022-09-09T03:56:54;9.17;;;4.53;;
71166;SDS011;58864;45.928;20.078;2022-09-09T03:59:18;9.60;;;4.25;;
71166;SDS011;58864;45.928;20.078;2022-09-09T04:01:47;9.45;;;4.30;;
71166;SDS011;58864;45.928;20.078;2022-09-09T04:04:15;9.65;;;4.35;;
71166;SDS011;58864;45.928;20.078;2022-09-09T04:06:43;11.10;;;4.45;;
71166;SDS011;58864;45.928;20.078;2022-09-09T04:09:10;12.37;;;5.17;;
71166;SDS011;58864;45.928;20.078;2022-09-09T04:11:38;11.73;;;4.45;;
71166;SDS011;58864;45.928;20.078;2022-09-09T04:14:05;13.77;;;4.90;;
71166;SDS011;58864;45.928;20.078;2022-09-09T04:16:30;13.38;;;5.60;;
71166;SDS011;58864;45.928;20.078;2022-09-09T04:18:55;11.90;;;5.97;;
71166;SDS011;58864;45.928;20.078;2022-09-09T04:21:21;15.13;;;5.88;;
71166;SDS011;58864;45.928;20.078;2022-09-09T04:23:48;12.02;;;5.45;;
71166;SDS011;58864;45.928;20.078;2022-09-09T04:26:16;12.65;;;5.75;;
71166;SDS011;58864;45.928;20.078;2022-09-09T04:28:47;12.35;;;5.38;;
71166;SDS011;58864;45.928;20.078;2022-09-09T04:31:18;13.57;;;5.17;;
71166;SDS011;58864;45.928;20.078;2022-09-09T04:33:54;10.10;;;5.30;;
71166;SDS011;58864;45.928;20.078;2022-09-09T04:36:22;12.27;;;5.00;;
71166;SDS011;58864;45.928;20.078;2022-09-09T04:38:49;13.13;;;5.18;;
71166;SDS011;58864;45.928;20.078;2022-09-09T04:41:16;12.85;;;5.07;;
71166;SDS011;58864;45.928;20.078;2022-09-09T04:43:43;10.50;;;4.20;;
71166;SDS011;58864;45.928;20.078;2022-09-09T04:46:08;11.82;;;4.40;;
71166;SDS011;58864;45.928;20.078;2022-09-09T04:48:35;9.05;;;4.78;;
71166;SDS011;58864;45.928;20.078;2022-09-09T04:51:03;11.73;;;4.68;;
71166;SDS011;58864;45.928;20.078;2022-09-09T04:53:32;13.13;;;4.88;;
71166;SDS011;58864;45.928;20.078;2022-09-09T04:56:16;9.97;;;4.77;;
71166;SDS011;58864;45.928;20.078;2022-09-09T04:58:42;11.93;;;4.60;;
71166;SDS011;58864;45.928;20.078;2022-09-09T05:01:11;10.70;;;4.90;;
71166;SDS011;58864;45.928;20.078;2022-09-09T05:03:37;11.85;;;5.43;;
71166;SDS011;58864;45.928;20.078;2022-09-09T05:06:02;9.43;;;4.67;;
71166;SDS011;58864;45.928;20.078;2022-09-09T05:08:32;11.25;;;5.30;;
71166;SDS011;58864;45.928;20.078;2022-09-09T05:10:57;10.03;;;4.93;;
71166;SDS011;58864;45.928;20.078;2022-09-09T05:13:23;9.97;;;4.93;;
71166;SDS011;58864;45.928;20.078;2022-09-09T05:15:52;10.70;;;5.43;;
71166;SDS011;58864;45.928;20.078;2022-09-09T05:18:20;14.25;;;5.18;;
71166;SDS011;58864;45.928;20.078;2022-09-09T05:20:46;17.35;;;6.13;;
71166;SDS011;58864;45.928;20.078;2022-09-09T05:23:18;11.77;;;5.75;;
71166;SDS011;58864;45.928;20.078;2022-09-09T05:25:53;13.80;;;5.73;;
71166;SDS011;58864;45.928;20.078;2022-09-09T05:28:20;13.73;;;6.03;;
71166;SDS011;58864;45.928;20.078;2022-09-09T05:30:45;12.57;;;5.68;;
71166;SDS011;58864;45.928;20.078;2022-09-09T05:33:13;11.50;;;5.78;;
71166;SDS011;58864;45.928;20.078;2022-09-09T05:35:41;9.70;;;4.32;;
71166;SDS011;58864;45.928;20.078;2022-09-09T05:38:06;10.33;;;4.80;;
71166;SDS011;58864;45.928;20.078;2022-09-09T05:40:33;9.10;;;4.47;;
71166;SDS011;58864;45.928;20.078;2022-09-09T05:43:00;9.50;;;4.50;;
71166;SDS011;58864;45.928;20.078;2022-09-09T05:45:26;12.77;;;4.38;;
71166;SDS011;58864;45.928;20.078;2022-09-09T05:47:56;9.60;;;4.85;;
71166;SDS011;58864;45.928;20.078;2022-09-09T05:50:22;8.83;;;4.63;;
71166;SDS011;58864;45.928;20.078;2022-09-09T05:52:49;9.27;;;4.57;;
71166;SDS011;58864;45.928;20.078;2022-09-09T05:55:21;10.93;;;4.63;;
71166;SDS011;58864;45.928;20.078;2022-09-09T05:57:48;8.32;;;4.10;;
71166;SDS011;58864;45.928;20.078;2022-09-09T06:00:16;7.35;;;3.92;;
71166;SDS011;58864;45.928;20.078;2022-09-09T06:02:41;9.43;;;4.43;;
71166;SDS011;58864;45.928;20.078;2022-09-09T06:05:06;8.70;;;3.92;;
71166;SDS011;58864;45.928;20.078;2022-09-09T06:07:35;8.35;;;3.83;;
71166;SDS011;58864;45.928;20.078;2022-09-09T06:10:00;10.95;;;4.20;;
71166;SDS011;58864;45.928;20.078;2022-09-09T06:12:25;10.48;;;3.55;;
71166;SDS011;58864;45.928;20.078;2022-09-09T06:14:50;10.70;;;4.60;;
71166;SDS011;58864;45.928;20.078;2022-09-09T06:17:16;9.48;;;3.97;;
71166;SDS011;58864;45.928;20.078;2022-09-09T06:19:42;8.02;;;3.70;;
71166;SDS011;58864;45.928;20.078;2022-09-09T06:22:06;9.43;;;3.33;;
71166;SDS011;58864;45.928;20.078;2022-09-09T06:24:32;6.20;;;2.93;;
71166;SDS011;58864;45.928;20.078;2022-09-09T06:26:58;7.72;;;3.40;;
71166;SDS011;58864;45.928;20.078;2022-09-09T06:29:23;8.02;;;3.00;;
71166;SDS011;58864;45.928;20.078;2022-09-09T06:31:48;7.07;;;2.95;;
71166;SDS011;58864;45.928;20.078;2022-09-09T06:34:13;8.00;;;3.50;;
71166;SDS011;58864;45.928;20.078;2022-09-09T06:36:39;9.10;;;2.90;;
71166;SDS011;58864;45.928;20.078;2022-09-09T06:39:05;8.43;;;3.55;;
71166;SDS011;58864;45.928;20.078;2022-09-09T06:41:31;6.63;;;3.10;;
71166;SDS011;58864;45.928;20.078;2022-09-09T06:43:56;7.82;;;2.80;;
71166;SDS011;58864;45.928;20.078;2022-09-09T06:46:23;6.07;;;2.80;;
71166;SDS011;58864;45.928;20.078;2022-09-09T06:48:52;7.28;;;2.83;;
71166;SDS011;58864;45.928;20.078;2022-09-09T06:51:20;6.20;;;2.50;;
71166;SDS011;58864;45.928;20.078;2022-09-09T06:53:46;7.97;;;2.93;;
71166;SDS011;58864;45.928;20.078;2022-09-09T06:58:47;6.13;;;2.45;;
71166;SDS011;58864;45.928;20.078;2022-09-09T07:01:13;6.10;;;2.40;;
71166;SDS011;58864;45.928;20.078;2022-09-09T07:03:44;7.18;;;2.60;;
71166;SDS011;58864;45.928;20.078;2022-09-09T07:06:15;6.60;;;2.27;;
71166;SDS011;58864;45.928;20.078;2022-09-09T07:08:41;7.32;;;2.50;;
71166;SDS011;58864;45.928;20.078;2022-09-09T07:11:06;5.53;;;2.40;;
71166;SDS011;58864;45.928;20.078;2022-09-09T07:13:32;6.00;;;2.30;;
71166;SDS011;58864;45.928;20.078;2022-09-09T07:16:04;8.10;;;2.40;;
71166;SDS011;58864;45.928;20.078;2022-09-09T07:18:30;8.02;;;2.58;;
71166;SDS011;58864;45.928;20.078;2022-09-09T07:20:55;5.30;;;2.33;;
71166;SDS011;58864;45.928;20.078;2022-09-09T07:23:21;7.17;;;2.20;;
71166;SDS011;58864;45.928;20.078;2022-09-09T07:25:46;6.00;;;2.15;;
71166;SDS011;58864;45.928;20.078;2022-09-09T07:28:11;5.88;;;2.40;;
71166;SDS011;58864;45.928;20.078;2022-09-09T07:30:36;6.20;;;2.20;;
71166;SDS011;58864;45.928;20.078;2022-09-09T07:33:01;5.53;;;2.10;;
71166;SDS011;58864;45.928;20.078;2022-09-09T07:35:27;6.80;;;2.28;;
71166;SDS011;58864;45.928;20.078;2022-09-09T07:37:53;7.93;;;2.30;;
71166;SDS011;58864;45.928;20.078;2022-09-09T07:40:18;8.73;;;2.90;;
71166;SDS011;58864;45.928;20.078;2022-09-09T07:42:47;4.90;;;2.03;;
71166;SDS011;58864;45.928;20.078;2022-09-09T07:45:12;7.32;;;2.35;;
71166;SDS011;58864;45.928;20.078;2022-09-09T07:47:38;7.25;;;2.38;;
71166;SDS011;58864;45.928;20.078;2022-09-09T07:50:03;6.50;;;2.43;;
71166;SDS011;58864;45.928;20.078;2022-09-09T07:52:28;6.20;;;2.67;;
71166;SDS011;58864;45.928;20.078;2022-09-09T07:54:53;7.37;;;3.10;;
71166;SDS011;58864;45.928;20.078;2022-09-09T07:57:18;5.30;;;2.13;;
71166;SDS011;58864;45.928;20.078;2022-09-09T07:59:43;7.07;;;2.17;;
71166;SDS011;58864;45.928;20.078;2022-09-09T08:02:09;5.13;;;2.40;;
71166;SDS011;58864;45.928;20.078;2022-09-09T08:04:33;6.20;;;2.53;;
71166;SDS011;58864;45.928;20.078;2022-09-09T08:06:59;5.32;;;2.15;;
71166;SDS011;58864;45.928;20.078;2022-09-09T08:09:25;6.93;;;2.40;;
71166;SDS011;58864;45.928;20.078;2022-09-09T08:11:53;6.87;;;2.13;;
71166;SDS011;58864;45.928;20.078;2022-09-09T08:14:18;5.65;;;1.90;;
71166;SDS011;58864;45.928;20.078;2022-09-09T08:16:45;5.80;;;2.10;;
71166;SDS011;58864;45.928;20.078;2022-09-09T08:19:14;5.35;;;2.17;;
71166;SDS011;58864;45.928;20.078;2022-09-09T08:21:44;8.63;;;2.40;;
71166;SDS011;58864;45.928;20.078;2022-09-09T08:24:10;5.10;;;1.90;;
71166;SDS011;58864;45.928;20.078;2022-09-09T08:26:37;6.07;;;1.90;;
71166;SDS011;58864;45.928;20.078;2022-09-09T08:29:04;5.38;;;2.35;;
71166;SDS011;58864;45.928;20.078;2022-09-09T08:31:32;5.35;;;2.00;;
71166;SDS011;58864;45.928;20.078;2022-09-09T08:33:59;6.32;;;2.08;;
71166;SDS011;58864;45.928;20.078;2022-09-09T08:36:25;6.70;;;2.33;;
71166;SDS011;58864;45.928;20.078;2022-09-09T08:38:53;5.18;;;2.00;;
71166;SDS011;58864;45.928;20.078;2022-09-09T08:49:24;7.80;;;2.77;;
71166;SDS011;58864;45.928;20.078;2022-09-09T08:52:21;7.13;;;2.83;;
71166;SDS011;58864;45.928;20.078;2022-09-09T08:54:49;6.63;;;2.70;;
71166;SDS011;58864;45.928;20.078;2022-09-09T08:57:17;7.00;;;2.88;;
71166;SDS011;58864;45.928;20.078;2022-09-09T08:59:44;8.40;;;3.35;;
71166;SDS011;58864;45.928;20.078;2022-09-09T09:02:15;6.40;;;2.20;;
71166;SDS011;58864;45.928;20.078;2022-09-09T09:09:57;7.80;;;3.00;;
71166;SDS011;58864;45.928;20.078;2022-09-09T09:12:40;8.35;;;2.58;;
71166;SDS011;58864;45.928;20.078;2022-09-09T09:15:26;7.45;;;2.58;;
71166;SDS011;58864;45.928;20.078;2022-09-09T09:17:53;6.20;;;2.45;;
71166;SDS011;58864;45.928;20.078;2022-09-09T09:20:21;6.32;;;2.72;;
71166;SDS011;58864;45.928;20.078;2022-09-09T09:22:54;9.23;;;2.70;;
71166;SDS011;58864;45.928;20.078;2022-09-09T09:25:22;6.88;;;2.78;;
71166;SDS011;58864;45.928;20.078;2022-09-09T09:30:29;6.00;;;2.38;;
71166;SDS011;58864;45.928;20.078;2022-09-09T09:35:26;6.33;;;2.57;;
71166;SDS011;58864;45.928;20.078;2022-09-09T09:37:51;6.95;;;2.30;;
71166;SDS011;58864;45.928;20.078;2022-09-09T09:40:19;7.63;;;2.63;;
71166;SDS011;58864;45.928;20.078;2022-09-09T09:42:51;7.07;;;2.42;;
71166;SDS011;58864;45.928;20.078;2022-09-09T09:45:35;6.88;;;2.40;;
71166;SDS011;58864;45.928;20.078;2022-09-09T09:48:08;5.10;;;2.27;;
71166;SDS011;58864;45.928;20.078;2022-09-09T09:53:25;5.90;;;2.50;;
71166;SDS011;58864;45.928;20.078;2022-09-09T09:55:59;6.00;;;2.42;;
71166;SDS011;58864;45.928;20.078;2022-09-09T09:58:32;6.35;;;2.03;;
71166;SDS011;58864;45.928;20.078;2022-09-09T10:01:01;6.10;;;2.30;;
71166;SDS011;58864;45.928;20.078;2022-09-09T10:03:33;5.82;;;2.38;;
71166;SDS011;58864;45.928;20.078;2022-09-09T10:06:06;5.97;;;2.03;;
71166;SDS011;58864;45.928;20.078;2022-09-09T10:08:33;10.52;;;2.45;;
71166;SDS011;58864;45.928;20.078;2022-09-09T10:11:44;6.88;;;2.00;;
71166;SDS011;58864;45.928;20.078;2022-09-09T10:23:15;6.13;;;2.60;;
71166;SDS011;58864;45.928;20.078;2022-09-09T10:31:32;6.47;;;2.70;;
71166;SDS011;58864;45.928;20.078;2022-09-09T10:37:12;6.47;;;2.40;;
71166;SDS011;58864;45.928;20.078;2022-09-09T10:42:50;5.70;;;2.00;;
71166;SDS011;58864;45.928;20.078;2022-09-09T10:48:28;5.20;;;1.83;;
71166;SDS011;58864;45.928;20.078;2022-09-09T10:51:30;5.60;;;2.13;;
71166;SDS011;58864;45.928;20.078;2022-09-09T10:56:55;5.70;;;1.53;;
71166;SDS011;58864;45.928;20.078;2022-09-09T10:59:24;5.40;;;1.67;;
71166;SDS011;58864;45.928;20.078;2022-09-09T11:01:56;4.72;;;1.30;;
71166;SDS011;58864;45.928;20.078;2022-09-09T11:04:48;3.60;;;1.17;;
71166;SDS011;58864;45.928;20.078;2022-09-09T11:10:12;8.13;;;1.00;;
71166;SDS011;58864;45.928;20.078;2022-09-09T11:12:42;5.25;;;1.20;;
71166;SDS011;58864;45.928;20.078;2022-09-09T11:15:16;5.03;;;1.40;;
71166;SDS011;58864;45.928;20.078;2022-09-09T11:17:50;3.70;;;1.00;;
71166;SDS011;58864;45.928;20.078;2022-09-09T11:20:18;3.80;;;1.23;;
71166;SDS011;58864;45.928;20.078;2022-09-09T11:22:53;3.70;;;1.37;;
71166;SDS011;58864;45.928;20.078;2022-09-09T11:25:35;5.00;;;1.63;;
71166;SDS011;58864;45.928;20.078;2022-09-09T11:41:12;6.90;;;1.30;;
71166;SDS011;58864;45.928;20.078;2022-09-09T11:43:48;6.72;;;1.60;;
71166;SDS011;58864;45.928;20.078;2022-09-09T11:46:18;8.75;;;2.45;;
71166;SDS011;58864;45.928;20.078;2022-09-09T11:48:58;7.00;;;1.67;;
71166;SDS011;58864;45.928;20.078;2022-09-09T11:53:54;5.63;;;1.40;;
71166;SDS011;58864;45.928;20.078;2022-09-09T11:56:29;8.25;;;1.58;;
71166;SDS011;58864;45.928;20.078;2022-09-09T11:58:57;3.60;;;1.20;;
71166;SDS011;58864;45.928;20.078;2022-09-09T12:06:51;6.22;;;1.50;;
71166;SDS011;58864;45.928;20.078;2022-09-09T12:12:18;3.38;;;1.00;;
71166;SDS011;58864;45.928;20.078;2022-09-09T12:14:59;4.20;;;0.80;;
71166;SDS011;58864;45.928;20.078;2022-09-09T12:17:31;3.35;;;1.00;;
71166;SDS011;58864;45.928;20.078;2022-09-09T12:20:13;3.45;;;0.80;;
71166;SDS011;58864;45.928;20.078;2022-09-09T12:37:00;3.20;;;0.93;;
71166;SDS011;58864;45.928;20.078;2022-09-09T12:39:33;4.03;;;0.90;;
71166;SDS011;58864;45.928;20.078;2022-09-09T12:42:00;2.70;;;0.83;;
71166;SDS011;58864;45.928;20.078;2022-09-09T12:44:28;3.42;;;0.90;;
71166;SDS011;58864;45.928;20.078;2022-09-09T12:46:52;3.88;;;1.13;;
71166;SDS011;58864;45.928;20.078;2022-09-09T12:49:37;3.27;;;0.93;;
71166;SDS011;58864;45.928;20.078;2022-09-09T12:52:04;2.80;;;0.70;;
71166;SDS011;58864;45.928;20.078;2022-09-09T12:54:34;3.45;;;0.90;;
71166;SDS011;58864;45.928;20.078;2022-09-09T12:56:59;3.58;;;1.00;;
71166;SDS011;58864;45.928;20.078;2022-09-09T12:59:35;4.57;;;1.00;;
71166;SDS011;58864;45.928;20.078;2022-09-09T13:02:01;3.88;;;0.75;;
71166;SDS011;58864;45.928;20.078;2022-09-09T13:04:28;2.60;;;0.77;;
71166;SDS011;58864;45.928;20.078;2022-09-09T13:06:53;3.40;;;0.90;;
71166;SDS011;58864;45.928;20.078;2022-09-09T13:09:17;3.27;;;1.00;;
71166;SDS011;58864;45.928;20.078;2022-09-09T13:11:43;4.03;;;1.10;;
71166;SDS011;58864;45.928;20.078;2022-09-09T13:14:15;4.13;;;1.30;;
71166;SDS011;58864;45.928;20.078;2022-09-09T13:16:53;3.33;;;0.90;;
71166;SDS011;58864;45.928;20.078;2022-09-09T13:19:20;2.63;;;0.90;;
71166;SDS011;58864;45.928;20.078;2022-09-09T13:21:45;2.85;;;0.88;;
71166;SDS011;58864;45.928;20.078;2022-09-09T13:26:56;3.08;;;0.73;;
71166;SDS011;58864;45.928;20.078;2022-09-09T13:29:21;4.13;;;0.88;;
71166;SDS011;58864;45.928;20.078;2022-09-09T13:31:46;7.93;;;1.37;;
71166;SDS011;58864;45.928;20.078;2022-09-09T13:34:30;4.03;;;0.73;;
71166;SDS011;58864;45.928;20.078;2022-09-09T13:36:59;2.42;;;0.60;;
71166;SDS011;58864;45.928;20.078;2022-09-09T13:39:26;3.08;;;0.80;;
71166;SDS011;58864;45.928;20.078;2022-09-09T13:41:51;3.07;;;0.80;;
71166;SDS011;58864;45.928;20.078;2022-09-09T13:44:18;8.52;;;0.90;;
71166;SDS011;58864;45.928;20.078;2022-09-09T13:46:59;4.95;;;0.90;;
71166;SDS011;58864;45.928;20.078;2022-09-09T13:49:44;4.03;;;0.80;;
71166;SDS011;58864;45.928;20.078;2022-09-09T13:52:10;4.07;;;0.80;;
71166;SDS011;58864;45.928;20.078;2022-09-09T13:54:40;2.65;;;0.73;;
71166;SDS011;58864;45.928;20.078;2022-09-09T13:57:14;2.63;;;0.80;;
71166;SDS011;58864;45.928;20.078;2022-09-09T13:59:46;3.25;;;0.90;;
71166;SDS011;58864;45.928;20.078;2022-09-09T14:02:14;2.90;;;0.80;;
71166;SDS011;58864;45.928;20.078;2022-09-09T14:04:44;4.32;;;0.77;;
71166;SDS011;58864;45.928;20.078;2022-09-09T14:07:17;4.45;;;0.93;;
71166;SDS011;58864;45.928;20.078;2022-09-09T14:09:45;3.55;;;0.77;;
71166;SDS011;58864;45.928;20.078;2022-09-09T14:12:16;2.92;;;0.93;;
71166;SDS011;58864;45.928;20.078;2022-09-09T14:14:45;2.63;;;0.73;;
71166;SDS011;58864;45.928;20.078;2022-09-09T14:17:12;3.05;;;0.90;;
71166;SDS011;58864;45.928;20.078;2022-09-09T14:19:41;3.15;;;0.82;;
71166;SDS011;58864;45.928;20.078;2022-09-09T14:22:06;5.03;;;0.75;;
71166;SDS011;58864;45.928;20.078;2022-09-09T14:24:32;4.10;;;1.10;;
71166;SDS011;58864;45.928;20.078;2022-09-09T14:26:58;3.65;;;0.90;;
71166;SDS011;58864;45.928;20.078;2022-09-09T14:29:23;3.80;;;1.00;;
71166;SDS011;58864;45.928;20.078;2022-09-09T14:31:50;3.53;;;0.77;;
71166;SDS011;58864;45.928;20.078;2022-09-09T14:34:17;3.77;;;1.00;;
71166;SDS011;58864;45.928;20.078;2022-09-09T14:36:42;3.55;;;0.70;;
71166;SDS011;58864;45.928;20.078;2022-09-09T14:39:11;4.28;;;0.65;;
71166;SDS011;58864;45.928;20.078;2022-09-09T14:41:37;2.60;;;0.60;;
71166;SDS011;58864;45.928;20.078;2022-09-09T14:44:05;3.58;;;1.10;;
71166;SDS011;58864;45.928;20.078;2022-09-09T14:46:32;2.93;;;0.80;;
71166;SDS011;58864;45.928;20.078;2022-09-09T14:48:57;3.95;;;0.80;;
71166;SDS011;58864;45.928;20.078;2022-09-09T14:51:24;2.83;;;0.95;;
71166;SDS011;58864;45.928;20.078;2022-09-09T14:53:51;2.67;;;0.80;;
71166;SDS011;58864;45.928;20.078;2022-09-09T14:56:18;3.28;;;0.80;;
71166;SDS011;58864;45.928;20.078;2022-09-09T14:58:46;2.70;;;0.77;;
71166;SDS011;58864;45.928;20.078;2022-09-09T15:01:15;5.53;;;0.90;;
71166;SDS011;58864;45.928;20.078;2022-09-09T15:03:49;4.30;;;0.80;;
71166;SDS011;58864;45.928;20.078;2022-09-09T15:06:15;5.93;;;0.85;;
71166;SDS011;58864;45.928;20.078;2022-09-09T15:08:43;3.70;;;0.70;;
71166;SDS011;58864;45.928;20.078;2022-09-09T15:11:09;2.90;;;0.75;;
71166;SDS011;58864;45.928;20.078;2022-09-09T15:13:35;2.72;;;0.80;;
71166;SDS011;58864;45.928;20.078;2022-09-09T15:16:07;2.65;;;0.77;;
71166;SDS011;58864;45.928;20.078;2022-09-09T15:18:40;3.05;;;0.90;;
71166;SDS011;58864;45.928;20.078;2022-09-09T15:21:15;3.20;;;0.90;;
71166;SDS011;58864;45.928;20.078;2022-09-09T15:23:43;2.50;;;0.70;;
71166;SDS011;58864;45.928;20.078;2022-09-09T15:26:11;3.28;;;0.75;;
71166;SDS011;58864;45.928;20.078;2022-09-09T15:28:38;3.15;;;0.90;;
71166;SDS011;58864;45.928;20.078;2022-09-09T15:31:12;4.78;;;0.88;;
71166;SDS011;58864;45.928;20.078;2022-09-09T15:33:46;3.10;;;0.70;;
71166;SDS011;58864;45.928;20.078;2022-09-09T15:36:38;3.45;;;0.75;;
71166;SDS011;58864;45.928;20.078;2022-09-09T15:39:08;3.28;;;0.90;;
71166;SDS011;58864;45.928;20.078;2022-09-09T15:41:36;6.63;;;1.00;;
71166;SDS011;58864;45.928;20.078;2022-09-09T15:44:01;3.80;;;0.80;;
71166;SDS011;58864;45.928;20.078;2022-09-09T15:46:36;6.22;;;1.02;;
71166;SDS011;58864;45.928;20.078;2022-09-09T15:49:10;3.78;;;0.98;;
71166;SDS011;58864;45.928;20.078;2022-09-09T15:51:36;2.60;;;0.70;;
71166;SDS011;58864;45.928;20.078;2022-09-09T15:54:02;6.38;;;1.00;;
71166;SDS011;58864;45.928;20.078;2022-09-09T15:56:29;4.78;;;1.00;;
71166;SDS011;58864;45.928;20.078;2022-09-09T15:58:55;4.63;;;1.10;;
71166;SDS011;58864;45.928;20.078;2022-09-09T16:01:24;6.50;;;0.90;;
71166;SDS011;58864;45.928;20.078;2022-09-09T16:03:49;5.87;;;0.90;;
71166;SDS011;58864;45.928;20.078;2022-09-09T16:06:15;5.00;;;1.20;;
71166;SDS011;58864;45.928;20.078;2022-09-09T16:08:49;4.22;;;0.90;;
71166;SDS011;58864;45.928;20.078;2022-09-09T16:11:16;5.00;;;0.90;;
71166;SDS011;58864;45.928;20.078;2022-09-09T16:13:47;2.85;;;0.70;;
71166;SDS011;58864;45.928;20.078;2022-09-09T16:16:14;5.33;;;0.80;;
71166;SDS011;58864;45.928;20.078;2022-09-09T16:18:44;5.10;;;1.00;;
71166;SDS011;58864;45.928;20.078;2022-09-09T16:21:13;5.90;;;1.10;;
71166;SDS011;58864;45.928;20.078;2022-09-09T16:23:43;5.78;;;1.00;;
71166;SDS011;58864;45.928;20.078;2022-09-09T16:26:10;4.07;;;0.90;;
71166;SDS011;58864;45.928;20.078;2022-09-09T16:28:35;4.33;;;0.93;;
71166;SDS011;58864;45.928;20.078;2022-09-09T16:31:04;5.85;;;1.20;;
71166;SDS011;58864;45.928;20.078;2022-09-09T16:33:31;5.53;;;1.38;;
71166;SDS011;58864;45.928;20.078;2022-09-09T16:35:57;4.95;;;1.40;;
71166;SDS011;58864;45.928;20.078;2022-09-09T16:38:22;9.15;;;1.40;;
71166;SDS011;58864;45.928;20.078;2022-09-09T16:40:48;4.00;;;1.03;;
71166;SDS011;58864;45.928;20.078;2022-09-09T16:43:14;5.38;;;0.80;;
71166;SDS011;58864;45.928;20.078;2022-09-09T16:45:43;3.70;;;1.13;;
71166;SDS011;58864;45.928;20.078;2022-09-09T16:48:08;3.92;;;1.05;;
71166;SDS011;58864;45.928;20.078;2022-09-09T16:50:34;9.05;;;1.40;;
71166;SDS011;58864;45.928;20.078;2022-09-09T16:52:58;5.27;;;1.27;;
71166;SDS011;58864;45.928;20.078;2022-09-09T16:55:25;5.13;;;1.30;;
71166;SDS011;58864;45.928;20.078;2022-09-09T16:57:50;7.80;;;2.95;;
71166;SDS011;58864;45.928;20.078;2022-09-09T17:00:15;8.53;;;1.80;;
71166;SDS011;58864;45.928;20.078;2022-09-09T17:02:43;4.80;;;1.55;;
71166;SDS011;58864;45.928;20.078;2022-09-09T17:05:09;7.30;;;2.05;;
71166;SDS011;58864;45.928;20.078;2022-09-09T17:07:33;36.73;;;11.63;;